createdAt,value
2024-01-30T00:00:20.664Z,1511.00
2024-01-30T00:01:20.786Z,1513.00
2024-01-30T00:02:20.800Z,1509.00
2024-01-30T00:03:20.833Z,1502.00
2024-01-30T00:04:20.910Z,1497.00
2024-01-30T00:05:20.990Z,1496.00
2024-01-30T00:06:20.996Z,1494.00
2024-01-30T00:07:21.152Z,1492.00
2024-01-30T00:08:21.126Z,1492.00
2024-01-30T00:09:21.555Z,1490.00
2024-01-30T00:10:21.360Z,1487.00
2024-01-30T00:11:21.265Z,1485.00
2024-01-30T00:12:21.314Z,1483.00
2024-01-30T00:13:21.615Z,1483.00
2024-01-30T00:14:21.458Z,1479.00
2024-01-30T00:15:21.558Z,1481.00
2024-01-30T00:16:21.659Z,1481.00
2024-01-30T00:17:21.598Z,1478.00
2024-01-30T00:18:21.655Z,1478.00
2024-01-30T00:19:22.711Z,1476.00
2024-01-30T00:20:22.020Z,1474.00
2024-01-30T00:21:21.841Z,1470.00
2024-01-30T00:22:21.987Z,1469.00
2024-01-30T00:23:21.923Z,1466.00
2024-01-30T00:24:21.981Z,1463.00
2024-01-30T00:25:22.261Z,1464.00
2024-01-30T00:26:22.565Z,1464.00
2024-01-30T00:27:22.147Z,1460.00
2024-01-30T00:28:22.240Z,1456.00
2024-01-30T00:29:22.275Z,1457.00
2024-01-30T00:30:22.328Z,1458.00
2024-01-30T00:31:22.431Z,1461.00
2024-01-30T00:32:22.438Z,1461.00
2024-01-30T00:33:22.539Z,1456.00
2024-01-30T00:34:22.710Z,1455.00
2024-01-30T00:35:23.564Z,1453.00
2024-01-30T00:36:22.665Z,1445.00
2024-01-30T00:37:22.744Z,1442.00
2024-01-30T00:38:22.840Z,1443.00
2024-01-30T00:39:22.838Z,1444.00
2024-01-30T00:40:23.040Z,1440.00
2024-01-30T00:41:22.961Z,1435.00
2024-01-30T00:42:23.011Z,1433.00
2024-01-30T00:43:23.141Z,1429.00
2024-01-30T00:44:23.130Z,1425.00
2024-01-30T00:45:23.190Z,1421.00
2024-01-30T00:46:23.316Z,1419.00
2024-01-30T00:47:23.307Z,1415.00
2024-01-30T00:48:23.355Z,1414.00
2024-01-30T00:49:23.547Z,1412.00
2024-01-30T00:50:23.537Z,1410.00
2024-01-30T00:51:23.530Z,1408.00
2024-01-30T00:52:23.646Z,1407.00
2024-01-30T00:53:23.643Z,1405.00
2024-01-30T00:54:23.710Z,1405.00
2024-01-30T00:55:23.841Z,1400.00
2024-01-30T00:56:23.813Z,1401.00
2024-01-30T00:57:23.864Z,1399.00
2024-01-30T00:58:24.053Z,1397.00
2024-01-30T00:59:23.997Z,1396.00
2024-01-30T01:00:24.116Z,1397.00
2024-01-30T01:01:24.288Z,1397.00
2024-01-30T01:02:24.230Z,1395.00
2024-01-30T01:03:27.153Z,1395.00
2024-01-30T01:04:24.252Z,1392.00
2024-01-30T01:05:24.223Z,1391.00
2024-01-30T01:06:24.275Z,1388.00
2024-01-30T01:07:24.436Z,1388.00
2024-01-30T01:08:24.232Z,1387.00
2024-01-30T01:09:24.314Z,1383.00
2024-01-30T01:10:24.332Z,1384.00
2024-01-30T01:11:24.250Z,1382.00
2024-01-30T01:12:24.249Z,1380.00
2024-01-30T01:13:24.285Z,1379.00
2024-01-30T01:14:24.248Z,1378.00
2024-01-30T01:15:25.885Z,1374.00
2024-01-30T01:16:24.353Z,1372.00
2024-01-30T01:17:24.293Z,1369.00
2024-01-30T01:18:24.322Z,1367.00
2024-01-30T01:19:24.418Z,1368.00
2024-01-30T01:20:24.305Z,1364.00
2024-01-30T01:21:24.334Z,1361.00
2024-01-30T01:22:24.374Z,1363.00
2024-01-30T01:23:24.334Z,1365.00
2024-01-30T01:24:24.416Z,1364.00
2024-01-30T01:25:24.470Z,1363.00
2024-01-30T01:26:24.371Z,1359.00
2024-01-30T01:27:24.449Z,1357.00
2024-01-30T01:28:24.418Z,1354.00
2024-01-30T01:29:24.392Z,1353.00
2024-01-30T01:30:24.398Z,1353.00
2024-01-30T01:31:24.475Z,1351.00
2024-01-30T01:32:24.407Z,1351.00
2024-01-30T01:33:24.441Z,1347.00
2024-01-30T01:34:26.258Z,1344.00
2024-01-30T01:35:24.425Z,1344.00
2024-01-30T01:36:24.494Z,1346.00
2024-01-30T01:37:24.447Z,1345.00
2024-01-30T01:38:24.425Z,1345.00
2024-01-30T01:39:24.424Z,1343.00
2024-01-30T01:40:24.566Z,1338.00
2024-01-30T01:41:24.433Z,1336.00
2024-01-30T01:42:24.445Z,1337.00
2024-01-30T01:43:24.492Z,1335.00
2024-01-30T01:44:24.438Z,1334.00
2024-01-30T01:45:24.433Z,1329.00
2024-01-30T01:46:24.468Z,1328.00
2024-01-30T01:47:24.454Z,1326.00
2024-01-30T01:48:24.568Z,1324.00
2024-01-30T01:49:24.603Z,1324.00
2024-01-30T01:50:24.652Z,1321.00
2024-01-30T01:51:24.485Z,1319.00
2024-01-30T01:52:24.477Z,1318.00
2024-01-30T01:53:24.471Z,1321.00
2024-01-30T01:54:24.442Z,1322.00
2024-01-30T01:55:24.549Z,1319.00
2024-01-30T01:56:24.448Z,1319.00
2024-01-30T01:57:24.460Z,1312.00
2024-01-30T01:58:24.497Z,1310.00
2024-01-30T01:59:24.458Z,1310.00
2024-01-30T02:00:24.475Z,1309.00
2024-01-30T02:01:24.549Z,1305.00
2024-01-30T02:02:24.463Z,1303.00
2024-01-30T02:03:24.529Z,1306.00
2024-01-30T02:04:24.558Z,1304.00
2024-01-30T02:05:25.088Z,1304.00
2024-01-30T02:06:24.477Z,1301.00
2024-01-30T02:07:24.518Z,1294.00
2024-01-30T02:08:24.518Z,1293.00
2024-01-30T02:09:24.566Z,1288.00
2024-01-30T02:10:24.682Z,1285.00
2024-01-30T02:11:24.706Z,1283.00
2024-01-30T02:12:24.886Z,1282.00
2024-01-30T02:13:25.029Z,1276.00
2024-01-30T02:14:26.694Z,1271.00
2024-01-30T02:15:24.893Z,1267.00
2024-01-30T02:16:25.042Z,1267.00
2024-01-30T02:17:24.916Z,1268.00
2024-01-30T02:18:24.946Z,1263.00
2024-01-30T02:19:25.016Z,1263.00
2024-01-30T02:20:24.985Z,1260.00
2024-01-30T02:21:24.934Z,1263.00
2024-01-30T02:22:25.007Z,1266.00
2024-01-30T02:23:24.907Z,1266.00
2024-01-30T02:24:24.939Z,1264.00
2024-01-30T02:25:24.987Z,1265.00
2024-01-30T02:26:24.974Z,1267.00
2024-01-30T02:27:24.934Z,1265.00
2024-01-30T02:28:25.033Z,1265.00
2024-01-30T02:29:25.008Z,1264.00
2024-01-30T02:30:25.011Z,1265.00
2024-01-30T02:31:25.065Z,1262.00
2024-01-30T02:32:24.978Z,1261.00
2024-01-30T02:33:24.991Z,1259.00
2024-01-30T02:34:25.101Z,1260.00
2024-01-30T02:35:25.055Z,1256.00
2024-01-30T02:36:25.132Z,1255.00
2024-01-30T02:37:24.978Z,1253.00
2024-01-30T02:38:24.955Z,1252.00
2024-01-30T02:39:24.970Z,1252.00
2024-01-30T02:40:25.094Z,1248.00
2024-01-30T02:41:25.064Z,1245.00
2024-01-30T02:42:25.005Z,1243.00
2024-01-30T02:43:25.111Z,1240.00
2024-01-30T02:44:25.036Z,1238.00
2024-01-30T02:45:25.040Z,1238.00
2024-01-30T02:46:25.256Z,1241.00
2024-01-30T02:47:24.984Z,1244.00
2024-01-30T02:48:25.045Z,1244.00
2024-01-30T02:49:25.132Z,1244.00
2024-01-30T02:50:25.630Z,1244.00
2024-01-30T02:51:25.043Z,1244.00
2024-01-30T02:52:25.160Z,1244.00
2024-01-30T02:53:25.036Z,1239.00
2024-01-30T02:54:25.624Z,1237.00
2024-01-30T02:55:25.109Z,1236.00
2024-01-30T02:56:25.058Z,1233.00
2024-01-30T02:57:25.017Z,1229.00
2024-01-30T02:58:25.156Z,1230.00
2024-01-30T02:59:25.053Z,1231.00
2024-01-30T03:00:25.059Z,1227.00
2024-01-30T03:01:25.076Z,1225.00
2024-01-30T03:02:25.086Z,1220.00
2024-01-30T03:03:25.184Z,1220.00
2024-01-30T03:04:25.327Z,1216.00
2024-01-30T03:05:25.191Z,1215.00
2024-01-30T03:06:25.186Z,1212.00
2024-01-30T03:07:25.294Z,1211.00
2024-01-30T03:08:25.330Z,1211.00
2024-01-30T03:09:28.198Z,1213.00
2024-01-30T03:10:25.319Z,1212.00
2024-01-30T03:11:25.280Z,1212.00
2024-01-30T03:12:25.286Z,1213.00
2024-01-30T03:13:25.354Z,1213.00
2024-01-30T03:14:25.282Z,1212.00
2024-01-30T03:15:25.276Z,1210.00
2024-01-30T03:16:25.342Z,1212.00
2024-01-30T03:17:25.288Z,1208.00
2024-01-30T03:18:25.287Z,1205.00
2024-01-30T03:19:25.418Z,1202.00
2024-01-30T03:20:25.323Z,1200.00
2024-01-30T03:21:25.254Z,1199.00
2024-01-30T03:22:25.357Z,1197.00
2024-01-30T03:23:25.255Z,1197.00
2024-01-30T03:24:25.252Z,1198.00
2024-01-30T03:25:25.582Z,1196.00
2024-01-30T03:26:25.261Z,1197.00
2024-01-30T03:27:25.265Z,1195.00
2024-01-30T03:28:25.293Z,1196.00
2024-01-30T03:29:25.265Z,1197.00
2024-01-30T03:30:25.350Z,1196.00
2024-01-30T03:31:25.548Z,1191.00
2024-01-30T03:32:25.278Z,1187.00
2024-01-30T03:33:25.321Z,1187.00
2024-01-30T03:34:25.476Z,1186.00
2024-01-30T03:35:26.134Z,1184.00
2024-01-30T03:36:25.277Z,1183.00
2024-01-30T03:37:25.360Z,1179.00
2024-01-30T03:38:25.261Z,1182.00
2024-01-30T03:39:25.267Z,1184.00
2024-01-30T03:40:25.405Z,1181.00
2024-01-30T03:41:25.382Z,1182.00
2024-01-30T03:42:25.264Z,1181.00
2024-01-30T03:43:25.297Z,1180.00
2024-01-30T03:44:25.254Z,1178.00
2024-01-30T03:45:25.260Z,1178.00
2024-01-30T03:46:25.419Z,1181.00
2024-01-30T03:47:25.312Z,1182.00
2024-01-30T03:48:25.324Z,1183.00
2024-01-30T03:49:25.390Z,1182.00
2024-01-30T03:50:25.475Z,1181.00
2024-01-30T03:51:25.279Z,1178.00
2024-01-30T03:52:25.709Z,1178.00
2024-01-30T03:53:25.287Z,1174.00
2024-01-30T03:54:26.220Z,1172.00
2024-01-30T03:55:25.363Z,1169.00
2024-01-30T03:56:26.136Z,1167.00
2024-01-30T03:57:25.280Z,1166.00
2024-01-30T03:58:25.351Z,1165.00
2024-01-30T03:59:25.545Z,1162.00
2024-01-30T04:00:25.303Z,1160.00
2024-01-30T04:01:25.369Z,1161.00
2024-01-30T04:02:25.518Z,1161.00
2024-01-30T04:03:25.321Z,1160.00
2024-01-30T04:04:25.369Z,1157.00
2024-01-30T04:05:25.422Z,1157.00
2024-01-30T04:06:25.337Z,1155.00
2024-01-30T04:07:25.449Z,1156.00
2024-01-30T04:08:25.395Z,1152.00
2024-01-30T04:09:25.317Z,1151.00
2024-01-30T04:10:25.345Z,1148.00
2024-01-30T04:11:25.321Z,1147.00
2024-01-30T04:12:25.383Z,1142.00
2024-01-30T04:13:25.425Z,1141.00
2024-01-30T04:14:25.345Z,1139.00
2024-01-30T04:15:25.346Z,1137.00
2024-01-30T04:16:25.414Z,1137.00
2024-01-30T04:17:25.329Z,1138.00
2024-01-30T04:18:25.341Z,1136.00
2024-01-30T04:19:25.409Z,1138.00
2024-01-30T04:20:25.342Z,1139.00
2024-01-30T04:21:25.379Z,1136.00
2024-01-30T04:22:25.506Z,1137.00
2024-01-30T04:23:32.784Z,1110.00
2024-01-30T04:24:32.773Z,1118.00
2024-01-30T04:25:32.842Z,1118.00
2024-01-30T04:26:32.765Z,1120.00
2024-01-30T04:27:32.773Z,1120.00
2024-01-30T04:28:32.750Z,1117.00
2024-01-30T04:29:32.801Z,1115.00
2024-01-30T04:30:32.755Z,1112.00
2024-01-30T04:31:39.985Z,1109.00
2024-01-30T04:32:40.047Z,1106.00
2024-01-30T04:33:40.084Z,1106.00
2024-01-30T04:34:40.104Z,1101.00
2024-01-30T04:35:40.040Z,1101.00
2024-01-30T04:36:40.029Z,1096.00
2024-01-30T04:37:40.003Z,1093.00
2024-01-30T04:38:39.994Z,1094.00
2024-01-30T04:39:40.052Z,1093.00
2024-01-30T04:40:40.028Z,1096.00
2024-01-30T04:41:40.023Z,1098.00
2024-01-30T04:42:40.055Z,1099.00
2024-01-30T04:43:40.000Z,1094.00
2024-01-30T04:44:40.045Z,1093.00
2024-01-30T04:45:40.100Z,1089.00
2024-01-30T04:46:40.121Z,1085.00
2024-01-30T04:47:40.261Z,1085.00
2024-01-30T04:48:40.279Z,1084.00
2024-01-30T04:49:40.255Z,1084.00
2024-01-30T04:50:40.242Z,1082.00
2024-01-30T04:51:40.324Z,1080.00
2024-01-30T04:52:40.302Z,1078.00
2024-01-30T04:53:40.325Z,1071.00
2024-01-30T04:54:40.402Z,1070.00
2024-01-30T04:55:40.436Z,1066.00
2024-01-30T04:56:40.420Z,1067.00
2024-01-30T04:57:40.462Z,1063.00
2024-01-30T04:58:40.487Z,1060.00
2024-01-30T04:59:40.523Z,1059.00
2024-01-30T05:00:40.601Z,1054.00
2024-01-30T05:01:40.661Z,1051.00
2024-01-30T05:02:40.628Z,1054.00
2024-01-30T05:03:40.718Z,1053.00
2024-01-30T05:04:40.845Z,1048.00
2024-01-30T05:05:40.748Z,1047.00
2024-01-30T05:06:40.842Z,1050.00
2024-01-30T05:07:40.782Z,1049.00
2024-01-30T05:08:40.821Z,1051.00
2024-01-30T05:09:40.904Z,1051.00
2024-01-30T05:10:40.895Z,1049.00
2024-01-30T05:11:40.943Z,1051.00
2024-01-30T05:12:40.958Z,1052.00
2024-01-30T05:13:40.967Z,1048.00
2024-01-30T05:14:41.008Z,1045.00
2024-01-30T05:15:41.088Z,1043.00
2024-01-30T05:16:41.101Z,1044.00
2024-01-30T05:17:41.240Z,1045.00
2024-01-30T05:18:41.282Z,1041.00
2024-01-30T05:19:41.305Z,1039.00
2024-01-30T05:20:41.210Z,1039.00
2024-01-30T05:21:41.326Z,1037.00
2024-01-30T05:22:41.300Z,1035.00
2024-01-30T05:23:41.332Z,1034.00
2024-01-30T05:24:41.397Z,1033.00
2024-01-30T05:25:41.403Z,1033.00
2024-01-30T05:26:41.446Z,1033.00
2024-01-30T05:27:41.549Z,1033.00
2024-01-30T05:29:04.090Z,1035.00
2024-01-30T05:29:41.525Z,1033.00
2024-01-30T05:30:41.611Z,1033.00
2024-01-30T05:31:41.554Z,1032.00
2024-01-30T05:32:41.666Z,1034.00
2024-01-30T05:33:41.848Z,1031.00
2024-01-30T05:34:41.627Z,1028.00
2024-01-30T05:35:41.573Z,1031.00
2024-01-30T05:36:41.670Z,1029.00
2024-01-30T05:37:41.595Z,1030.00
2024-01-30T05:38:41.597Z,1030.00
2024-01-30T05:39:41.637Z,1027.00
2024-01-30T05:40:41.590Z,1022.00
2024-01-30T05:41:41.603Z,1019.00
2024-01-30T05:42:41.606Z,1017.00
2024-01-30T05:43:41.617Z,1017.00
2024-01-30T05:44:41.606Z,1019.00
2024-01-30T05:45:41.632Z,1018.00
2024-01-30T05:46:42.116Z,1016.00
2024-01-30T05:47:41.655Z,1017.00
2024-01-30T05:48:42.643Z,1015.00
2024-01-30T05:49:41.616Z,1015.00
2024-01-30T05:50:41.657Z,1013.00
2024-01-30T05:51:41.695Z,1010.00
2024-01-30T05:52:41.671Z,1012.00
2024-01-30T05:53:41.634Z,1010.00
2024-01-30T05:54:41.655Z,1006.00
2024-01-30T05:55:41.634Z,1008.00
2024-01-30T05:56:41.666Z,1007.00
2024-01-30T05:57:41.696Z,1008.00
2024-01-30T05:58:41.711Z,1010.00
2024-01-30T05:59:42.321Z,1012.00
2024-01-30T06:00:42.213Z,1011.00
2024-01-30T06:01:41.890Z,1008.00
2024-01-30T06:02:41.922Z,1008.00
2024-01-30T06:03:41.924Z,1005.00
2024-01-30T06:04:42.005Z,1005.00
2024-01-30T06:05:42.614Z,1004.00
2024-01-30T06:06:42.057Z,1003.00
2024-01-30T06:07:42.134Z,1003.00
2024-01-30T06:08:42.028Z,998.00
2024-01-30T06:09:42.038Z,996.00
2024-01-30T06:10:42.120Z,996.00
2024-01-30T06:11:42.089Z,993.00
2024-01-30T06:12:42.109Z,994.00
2024-01-30T06:13:42.145Z,992.00
2024-01-30T06:14:44.232Z,993.00
2024-01-30T06:15:42.208Z,991.00
2024-01-30T06:16:42.187Z,990.00
2024-01-30T06:17:42.188Z,991.00
2024-01-30T06:18:42.184Z,991.00
2024-01-30T06:19:42.193Z,1006.00
2024-01-30T06:20:42.263Z,1014.00
2024-01-30T06:21:42.321Z,1029.00
2024-01-30T06:22:42.204Z,1024.00
2024-01-30T06:23:42.198Z,1026.00
2024-01-30T06:24:42.479Z,1145.00
2024-01-30T06:25:42.214Z,1190.00
2024-01-30T06:26:42.197Z,1137.00
2024-01-30T06:27:42.196Z,1171.00
2024-01-30T06:28:42.183Z,1242.00
2024-01-30T06:29:42.217Z,1340.00
2024-01-30T06:30:42.229Z,1324.00
2024-01-30T06:31:42.186Z,1318.00
2024-01-30T06:32:42.178Z,1335.00
2024-01-30T06:33:42.211Z,1345.00
2024-01-30T06:34:42.214Z,1358.00
2024-01-30T06:35:44.910Z,1424.00
2024-01-30T06:36:42.181Z,1435.00
2024-01-30T06:37:42.131Z,1446.00
2024-01-30T06:38:42.125Z,1540.00
2024-01-30T06:39:42.132Z,1555.00
2024-01-30T06:40:42.109Z,1635.00
2024-01-30T06:41:42.177Z,1661.00
2024-01-30T06:42:42.117Z,1680.00
2024-01-30T06:43:42.090Z,1696.00
2024-01-30T06:44:42.071Z,1705.00
2024-01-30T06:45:42.099Z,1721.00
2024-01-30T06:46:42.047Z,1833.00
2024-01-30T06:47:42.176Z,1808.00
2024-01-30T06:48:42.086Z,1825.00
2024-01-30T06:49:42.108Z,1892.00
2024-01-30T06:50:42.080Z,1891.00
2024-01-30T06:51:42.094Z,1912.00
2024-01-30T06:52:42.064Z,1928.00
2024-01-30T06:53:42.013Z,1942.00
2024-01-30T06:54:42.001Z,1974.00
2024-01-30T06:55:41.949Z,2029.00
2024-01-30T06:56:41.936Z,2044.00
2024-01-30T06:57:42.631Z,2045.00
2024-01-30T06:58:41.917Z,2047.00
2024-01-30T06:59:41.904Z,2053.00
2024-01-30T07:00:42.033Z,2072.00
2024-01-30T07:01:41.959Z,2112.00
2024-01-30T07:02:41.866Z,2160.00
2024-01-30T07:03:41.889Z,2188.00
2024-01-30T07:04:46.569Z,2201.00
2024-01-30T07:05:42.806Z,2238.00
2024-01-30T07:06:41.834Z,2362.00
2024-01-30T07:07:41.814Z,2376.00
2024-01-30T07:08:41.751Z,2397.00
2024-01-30T07:09:41.764Z,2413.00
2024-01-30T07:10:41.792Z,2438.00
2024-01-30T07:11:41.702Z,2498.00
2024-01-30T07:12:41.703Z,2537.00
2024-01-30T07:13:41.673Z,2561.00
2024-01-30T07:14:41.683Z,2583.00
2024-01-30T07:15:41.765Z,2606.00
2024-01-30T07:16:41.589Z,2680.00
2024-01-30T07:17:41.589Z,2698.00
2024-01-30T07:18:41.618Z,2738.00
2024-01-30T07:19:41.625Z,2747.00
2024-01-30T07:20:41.555Z,2740.00
2024-01-30T07:21:41.625Z,2556.00
2024-01-30T07:22:41.514Z,2387.00
2024-01-30T07:23:41.487Z,2439.00
2024-01-30T07:24:41.477Z,2463.00
2024-01-30T07:25:41.536Z,2530.00
2024-01-30T07:26:41.531Z,2417.00
2024-01-30T07:27:41.662Z,2155.00
2024-01-30T07:28:41.584Z,2153.00
2024-01-30T07:29:41.622Z,1984.00
2024-01-30T07:30:41.873Z,1803.00
2024-01-30T07:31:41.837Z,1764.00
2024-01-30T07:32:41.799Z,1394.00
2024-01-30T07:33:41.892Z,1276.00
2024-01-30T07:34:49.679Z,1356.00
2024-01-30T07:35:42.880Z,1517.00
2024-01-30T07:36:41.880Z,1457.00
2024-01-30T07:37:41.853Z,1455.00
2024-01-30T07:38:41.822Z,1467.00
2024-01-30T07:39:42.903Z,1482.00
2024-01-30T07:40:42.573Z,1500.00
2024-01-30T07:41:41.824Z,1568.00
2024-01-30T07:42:41.909Z,1594.00
2024-01-30T07:43:41.817Z,1606.00
2024-01-30T07:44:41.800Z,1626.00
2024-01-30T07:45:41.785Z,1644.00
2024-01-30T07:46:41.866Z,1667.00
2024-01-30T07:47:41.806Z,1690.00
2024-01-30T07:48:41.782Z,1709.00
2024-01-30T07:49:41.956Z,1727.00
2024-01-30T07:50:41.816Z,1745.00
2024-01-30T07:51:41.791Z,1756.00
2024-01-30T07:52:41.819Z,1809.00
2024-01-30T07:53:41.841Z,1830.00
2024-01-30T07:54:41.873Z,1845.00
2024-01-30T07:55:41.884Z,1859.00
2024-01-30T07:56:41.897Z,1923.00
2024-01-30T07:57:41.937Z,1945.00
2024-01-30T07:58:41.999Z,1967.00
2024-01-30T07:59:41.966Z,1988.00
2024-01-30T08:00:42.008Z,2029.00
2024-01-30T08:01:42.088Z,2050.00
2024-01-30T08:02:42.173Z,2084.00
2024-01-30T08:03:42.108Z,2077.00
2024-01-30T08:04:42.199Z,2124.00
2024-01-30T08:05:42.089Z,2125.00
2024-01-30T08:06:44.461Z,2129.00
2024-01-30T08:07:43.112Z,2133.00
2024-01-30T08:08:42.146Z,2197.00
2024-01-30T08:09:42.199Z,2226.00
2024-01-30T08:10:42.176Z,2236.00
2024-01-30T08:11:42.665Z,2238.00
2024-01-30T08:12:42.140Z,2261.00
2024-01-30T08:13:42.157Z,2277.00
2024-01-30T08:14:42.124Z,2299.00
2024-01-30T08:15:42.153Z,2327.00
2024-01-30T08:16:42.178Z,2310.00
2024-01-30T08:17:42.177Z,2225.00
2024-01-30T08:18:42.250Z,1689.00
2024-01-30T08:19:42.373Z,1660.00
2024-01-30T08:20:42.182Z,1615.00
2024-01-30T08:21:42.180Z,1501.00
2024-01-30T08:22:42.234Z,1543.00
2024-01-30T08:23:42.202Z,1474.00
2024-01-30T08:24:42.227Z,1450.00
2024-01-30T08:25:42.251Z,1437.00
2024-01-30T08:26:42.285Z,1429.00
2024-01-30T08:27:42.383Z,1408.00
2024-01-30T08:28:42.589Z,1832.00
2024-01-30T08:29:42.446Z,1364.00
2024-01-30T08:30:42.452Z,1485.00
2024-01-30T08:31:42.528Z,1591.00
2024-01-30T08:32:42.458Z,1834.00
2024-01-30T08:33:43.918Z,1670.00
2024-01-30T08:34:42.686Z,1672.00
2024-01-30T08:35:42.621Z,1705.00
2024-01-30T08:36:42.666Z,1754.00
2024-01-30T08:37:42.693Z,1767.00
2024-01-30T08:38:42.699Z,1920.00
2024-01-30T08:39:43.719Z,1884.00
2024-01-30T08:40:42.763Z,1973.00
2024-01-30T08:41:42.804Z,1902.00
2024-01-30T08:42:43.278Z,1926.00
2024-01-30T08:43:42.822Z,2133.00
2024-01-30T08:44:42.815Z,2041.00
2024-01-30T08:45:42.828Z,2040.00
2024-01-30T08:46:42.818Z,2051.00
2024-01-30T08:47:42.909Z,2067.00
2024-01-30T08:48:42.934Z,2094.00
2024-01-30T08:49:43.751Z,2112.00
2024-01-30T08:50:42.762Z,2145.00
2024-01-30T08:51:42.760Z,2205.00
2024-01-30T08:52:42.771Z,2215.00
2024-01-30T08:53:43.600Z,2227.00
2024-01-30T08:54:42.874Z,2329.00
2024-01-30T08:55:42.737Z,2327.00
2024-01-30T08:56:42.729Z,2326.00
2024-01-30T08:57:42.713Z,2344.00
2024-01-30T08:58:42.703Z,2366.00
2024-01-30T08:59:42.670Z,2385.00
2024-01-30T09:00:43.694Z,2411.00
2024-01-30T09:01:52.018Z,2420.00
2024-01-30T09:02:43.921Z,2496.00
2024-01-30T09:03:42.659Z,2566.00
2024-01-30T09:04:42.735Z,2591.00
2024-01-30T09:05:42.563Z,2606.00
2024-01-30T09:06:42.560Z,2610.00
2024-01-30T09:07:42.666Z,2620.00
2024-01-30T09:08:42.488Z,2621.00
2024-01-30T09:09:42.567Z,2291.00
2024-01-30T09:10:42.569Z,2291.00
2024-01-30T09:11:43.187Z,2220.00
2024-01-30T09:12:42.434Z,1917.00
2024-01-30T09:13:42.408Z,1718.00
2024-01-30T09:14:42.584Z,1406.00
2024-01-30T09:15:42.472Z,1051.00
2024-01-30T09:16:42.534Z,1171.00
2024-01-30T09:17:42.613Z,1180.00
2024-01-30T09:18:42.660Z,1176.00
2024-01-30T09:19:44.277Z,1096.00
2024-01-30T09:20:42.645Z,1060.00
2024-01-30T09:21:42.650Z,1007.00
2024-01-30T09:22:42.664Z,1011.00
2024-01-30T09:23:42.665Z,1063.00
2024-01-30T09:24:42.682Z,1059.00
2024-01-30T09:25:42.694Z,1180.00
2024-01-30T09:26:42.692Z,1281.00
2024-01-30T09:27:42.689Z,1272.00
2024-01-30T09:28:42.789Z,1277.00
2024-01-30T09:29:42.806Z,1290.00
2024-01-30T09:30:43.710Z,1437.00
2024-01-30T09:31:42.812Z,1413.00
2024-01-30T09:32:43.642Z,1468.00
2024-01-30T09:33:42.916Z,1497.00
2024-01-30T09:34:43.721Z,1561.00
2024-01-30T09:35:42.989Z,1551.00
2024-01-30T09:36:42.931Z,1664.00
2024-01-30T09:37:43.005Z,1629.00
2024-01-30T09:38:43.730Z,1637.00
2024-01-30T09:39:42.989Z,1658.00
2024-01-30T09:40:43.015Z,1712.00
2024-01-30T09:41:43.614Z,1757.00
2024-01-30T09:42:43.042Z,1804.00
2024-01-30T09:43:43.071Z,1829.00
2024-01-30T09:44:43.033Z,1852.00
2024-01-30T09:45:43.046Z,1891.00
2024-01-30T09:46:43.028Z,1922.00
2024-01-30T09:47:43.129Z,1964.00
2024-01-30T09:48:43.061Z,1997.00
2024-01-30T09:49:43.107Z,2010.00
2024-01-30T09:50:43.043Z,2025.00
2024-01-30T09:51:42.997Z,2056.00
2024-01-30T09:52:43.619Z,2102.00
2024-01-30T09:53:43.070Z,2117.00
2024-01-30T09:54:42.994Z,2144.00
2024-01-30T09:55:42.954Z,2172.00
2024-01-30T09:56:42.961Z,2199.00
2024-01-30T09:57:42.950Z,2209.00
2024-01-30T09:58:43.202Z,2213.00
2024-01-30T09:59:42.963Z,2270.00
2024-01-30T10:00:42.979Z,2306.00
2024-01-30T10:01:43.079Z,2308.00
2024-01-30T10:02:42.971Z,2325.00
2024-01-30T10:03:43.799Z,2346.00
2024-01-30T10:04:43.055Z,2363.00
2024-01-30T10:05:43.053Z,2386.00
2024-01-30T10:06:43.096Z,2409.00
2024-01-30T10:07:43.129Z,2435.00
2024-01-30T10:08:43.069Z,2466.00
2024-01-30T10:09:43.746Z,2489.00
2024-01-30T10:10:43.157Z,2507.00
2024-01-30T10:11:43.192Z,2533.00
2024-01-30T10:12:43.220Z,2553.00
2024-01-30T10:13:43.253Z,2596.00
2024-01-30T10:14:43.275Z,2620.00
2024-01-30T10:15:43.264Z,2745.00
2024-01-30T10:16:43.294Z,2730.00
2024-01-30T10:17:43.379Z,2685.00
2024-01-30T10:18:44.847Z,2557.00
2024-01-30T10:19:43.515Z,2568.00
2024-01-30T10:20:43.476Z,2600.00
2024-01-30T10:21:44.471Z,2619.00
2024-01-30T10:22:43.433Z,2622.00
2024-01-30T10:23:44.418Z,2614.00
2024-01-30T10:24:45.163Z,2603.00
2024-01-30T10:25:43.446Z,2606.00
2024-01-30T10:26:43.358Z,2607.00
2024-01-30T10:27:43.345Z,2603.00
2024-01-30T10:28:43.316Z,2596.00
2024-01-30T10:29:43.333Z,2583.00
2024-01-30T10:30:43.307Z,2574.00
2024-01-30T10:31:43.292Z,2567.00
2024-01-30T10:32:44.291Z,2569.00
2024-01-30T10:33:43.322Z,2575.00
2024-01-30T10:34:43.290Z,2566.00
2024-01-30T10:35:43.243Z,2563.00
2024-01-30T10:36:43.174Z,2562.00
2024-01-30T10:37:43.155Z,2561.00
2024-01-30T10:38:43.126Z,2551.00
2024-01-30T10:39:43.139Z,2544.00
2024-01-30T10:40:43.171Z,2543.00
2024-01-30T10:41:43.082Z,2541.00
2024-01-30T10:42:43.076Z,2536.00
2024-01-30T10:43:43.859Z,2534.00
2024-01-30T10:44:43.031Z,2527.00
2024-01-30T10:45:43.028Z,2519.00
2024-01-30T10:46:42.997Z,2508.00
2024-01-30T10:47:43.743Z,2501.00
2024-01-30T10:48:43.063Z,2487.00
2024-01-30T10:49:43.004Z,2490.00
2024-01-30T10:50:50.742Z,2492.00
2024-01-30T10:51:44.688Z,2488.00
2024-01-30T10:52:42.895Z,2481.00
2024-01-30T10:53:42.911Z,2475.00
2024-01-30T10:54:42.858Z,2474.00
2024-01-30T10:55:42.872Z,2469.00
2024-01-30T10:56:42.843Z,2467.00
2024-01-30T10:57:42.806Z,2467.00
2024-01-30T10:58:42.792Z,2462.00
2024-01-30T10:59:42.768Z,2462.00
2024-01-30T11:00:42.791Z,2461.00
2024-01-30T11:01:43.866Z,2454.00
2024-01-30T11:02:42.723Z,2449.00
2024-01-30T11:03:42.725Z,2447.00
2024-01-30T11:04:42.795Z,2442.00
2024-01-30T11:05:42.798Z,2436.00
2024-01-30T11:06:42.834Z,2433.00
2024-01-30T11:07:42.764Z,2434.00
2024-01-30T11:08:42.587Z,2434.00
2024-01-30T11:09:42.568Z,2431.00
2024-01-30T11:10:42.600Z,2424.00
2024-01-30T11:11:43.227Z,2417.00
2024-01-30T11:12:42.512Z,2413.00
2024-01-30T11:13:43.196Z,2414.00
2024-01-30T11:14:42.604Z,2409.00
2024-01-30T11:15:42.451Z,2414.00
2024-01-30T11:16:44.141Z,2549.00
2024-01-30T11:17:42.499Z,2390.00
2024-01-30T11:18:42.433Z,2318.00
2024-01-30T11:19:42.411Z,2367.00
2024-01-30T11:20:42.341Z,2354.00
2024-01-30T11:21:42.322Z,2249.00
2024-01-30T11:22:42.455Z,2058.00
2024-01-30T11:23:42.284Z,2077.00
2024-01-30T11:24:42.264Z,2003.00
2024-01-30T11:25:42.314Z,1985.00
2024-01-30T11:26:42.229Z,2018.00
2024-01-30T11:27:42.195Z,1877.00
2024-01-30T11:28:42.197Z,1820.00
2024-01-30T11:29:42.226Z,1814.00
2024-01-30T11:30:42.133Z,1755.00
2024-01-30T11:31:42.173Z,1705.00
2024-01-30T11:32:42.120Z,1692.00
2024-01-30T11:33:42.188Z,1614.00
2024-01-30T11:34:42.139Z,1639.00
2024-01-30T11:35:42.022Z,1678.00
2024-01-30T11:36:42.010Z,1778.00
2024-01-30T11:37:41.991Z,1936.00
2024-01-30T11:38:44.265Z,1868.00
2024-01-30T11:39:41.944Z,1863.00
2024-01-30T11:40:42.212Z,1848.00
2024-01-30T11:41:42.761Z,1774.00
2024-01-30T11:42:41.881Z,1854.00
2024-01-30T11:43:41.933Z,1842.00
2024-01-30T11:44:41.821Z,1624.00
2024-01-30T11:45:41.816Z,1690.00
2024-01-30T11:46:41.788Z,1710.00
2024-01-30T11:47:44.559Z,1607.00
2024-01-30T11:48:41.768Z,1618.00
2024-01-30T11:49:41.792Z,1698.00
2024-01-30T11:50:41.723Z,1654.00
2024-01-30T11:51:41.748Z,1629.00
2024-01-30T11:52:41.659Z,1502.00
2024-01-30T11:53:41.627Z,1513.00
2024-01-30T11:54:41.600Z,1530.00
2024-01-30T11:55:41.745Z,1526.00
2024-01-30T11:56:41.565Z,1514.00
2024-01-30T11:57:41.749Z,1651.00
2024-01-30T11:58:41.522Z,1565.00
2024-01-30T11:59:41.449Z,1448.00
2024-01-30T12:00:41.451Z,1514.00
2024-01-30T12:01:41.514Z,1542.00
2024-01-30T12:02:41.384Z,1630.00
2024-01-30T12:03:41.414Z,1598.00
2024-01-30T12:04:41.314Z,1543.00
2024-01-30T12:05:41.362Z,1518.00
2024-01-30T12:06:41.339Z,1510.00